createdAt,value
2023-03-15T00:04:05.874Z,96424.72
2023-03-15T00:09:07.899Z,96423.38
2023-03-15T00:14:10.802Z,96422.78
2023-03-15T00:19:12.437Z,96427.19
2023-03-15T00:24:14.165Z,96426.56
2023-03-15T00:29:15.809Z,96437.56
2023-03-15T00:34:18.960Z,96436.91
2023-03-15T00:39:21.048Z,96441.50
2023-03-15T00:44:24.395Z,96470.88
2023-03-15T00:49:26.107Z,96475.00
2023-03-15T00:54:27.829Z,96483.31
2023-03-15T00:59:34.833Z,96488.72
2023-03-15T01:04:37.231Z,96503.13
2023-03-15T01:09:39.031Z,96503.81
2023-03-15T01:14:40.971Z,96503.25
2023-03-15T01:19:42.733Z,96489.44
2023-03-15T01:24:44.574Z,96502.13
2023-03-15T01:29:46.649Z,96513.25
2023-03-15T01:34:49.751Z,96506.72
2023-03-15T01:39:51.899Z,96524.78
2023-03-15T01:44:55.764Z,96529.91
2023-03-15T01:50:06.760Z,96540.75
2023-03-15T01:55:14.094Z,96545.66
2023-03-15T02:00:29.609Z,96553.09
2023-03-15T02:05:46.112Z,96552.91
2023-03-15T02:10:56.233Z,96578.72
2023-03-15T02:16:00.216Z,96599.13
2023-03-15T02:21:18.453Z,96622.06
2023-03-15T02:26:34.625Z,96617.84
2023-03-15T02:31:37.828Z,96617.03
2023-03-15T02:36:39.890Z,96617.84
2023-03-15T02:41:45.480Z,96646.44
2023-03-15T02:46:51.142Z,96660.59
2023-03-15T02:51:56.189Z,96682.34
2023-03-15T02:56:57.887Z,96701.97
2023-03-15T03:01:59.686Z,96713.38
2023-03-15T03:07:01.465Z,96736.66
2023-03-15T03:12:11.317Z,96742.78
2023-03-15T03:17:14.432Z,96748.03
2023-03-15T03:22:16.709Z,96770.44
2023-03-15T03:27:19.143Z,96785.94
2023-03-15T03:32:22.259Z,96797.06
2023-03-15T03:37:24.069Z,96802.72
2023-03-15T03:42:48.648Z,96831.28
2023-03-15T03:47:53.313Z,96834.16
2023-03-15T03:52:55.286Z,96855.78
2023-03-15T03:58:01.932Z,96866.59
2023-03-15T04:03:13.991Z,96871.38
2023-03-15T04:08:21.701Z,96883.25
2023-03-15T04:13:25.358Z,96900.22
2023-03-15T04:18:28.400Z,96905.34
2023-03-15T04:23:30.532Z,96916.94
2023-03-15T04:28:45.119Z,96918.75
2023-03-15T04:34:04.534Z,96932.66
2023-03-15T04:39:32.820Z,96950.50
2023-03-15T04:44:56.756Z,96958.84
2023-03-15T04:50:23.782Z,96973.66
2023-03-15T04:55:35.300Z,97002.19
2023-03-15T05:01:15.441Z,97011.03
2023-03-15T05:06:26.472Z,97014.63
2023-03-15T05:11:57.914Z,97020.03
2023-03-15T05:17:24.572Z,97038.63
2023-03-15T05:22:45.042Z,97047.84
2023-03-15T05:28:06.107Z,97057.44
2023-03-15T05:33:33.919Z,97064.94
2023-03-15T05:39:03.224Z,97086.16
2023-03-15T05:44:29.292Z,97093.22
2023-03-15T05:49:52.452Z,97099.06
2023-03-15T05:55:24.197Z,97103.22
2023-03-15T06:00:49.307Z,97112.00
2023-03-15T06:06:06.107Z,97124.84
2023-03-15T06:11:13.345Z,97125.56
2023-03-15T06:16:15.915Z,97135.31
2023-03-15T06:21:21.880Z,97147.50
2023-03-15T06:26:24.063Z,97156.81
2023-03-15T06:31:30.131Z,97162.56
2023-03-15T06:36:38.740Z,97157.97
2023-03-15T06:41:41.927Z,97166.22
2023-03-15T06:46:49.857Z,97169.31
2023-03-15T06:51:53.702Z,97176.94
2023-03-15T06:56:57.787Z,97181.03
2023-03-15T07:01:59.523Z,97176.81
2023-03-15T07:07:01.298Z,97187.97
2023-03-15T07:12:03.021Z,97188.75
2023-03-15T07:17:04.901Z,97194.16
2023-03-15T07:22:06.918Z,97188.13
2023-03-15T07:27:15.054Z,97207.28
2023-03-15T07:32:18.049Z,97213.94
2023-03-15T07:37:19.941Z,97215.22
2023-03-15T07:42:21.722Z,97216.06
2023-03-15T07:47:26.696Z,97214.28
2023-03-15T07:52:28.354Z,97217.66
2023-03-15T07:57:30.130Z,97225.81
2023-03-15T08:02:32.143Z,97226.50
2023-03-15T08:07:33.866Z,97218.47
2023-03-15T08:12:35.634Z,97224.72
2023-03-15T08:17:37.776Z,97222.00
2023-03-15T08:22:39.440Z,97238.47
2023-03-15T08:27:42.128Z,97238.59
2023-03-15T08:32:46.340Z,97225.38
2023-03-15T08:37:52.306Z,97237.13
2023-03-15T08:42:54.515Z,97230.06
2023-03-15T08:48:00.402Z,97227.00
2023-03-15T08:53:02.149Z,97218.19
2023-03-15T08:58:05.234Z,97223.59
2023-03-15T09:03:07.499Z,97220.06
2023-03-15T09:08:09.139Z,97222.56
2023-03-15T09:13:15.037Z,97220.81
2023-03-15T09:18:18.003Z,97224.75
2023-03-15T09:23:21.288Z,97225.22
2023-03-15T09:28:25.710Z,97229.94
2023-03-15T09:33:27.544Z,97237.31
2023-03-15T09:38:29.356Z,97248.88
2023-03-15T09:43:43.496Z,97247.78
2023-03-15T09:49:01.313Z,97252.88
2023-03-15T09:54:19.061Z,97250.56
2023-03-15T09:59:22.937Z,97258.97
2023-03-15T10:04:30.868Z,97273.13
2023-03-15T10:09:33.744Z,97273.56
2023-03-15T10:14:50.532Z,97251.81
2023-03-15T10:19:58.966Z,97260.66
2023-03-15T10:25:23.533Z,97262.59
2023-03-15T10:30:29.431Z,97258.59
2023-03-15T10:35:32.142Z,97252.09
2023-03-15T10:40:39.794Z,97251.28
2023-03-15T10:45:41.664Z,97253.50
2023-03-15T10:50:43.413Z,97242.75
2023-03-15T10:55:45.592Z,97233.84
2023-03-15T11:00:53.523Z,97231.00
2023-03-15T11:05:57.437Z,97220.41
2023-03-15T11:11:00.239Z,97219.19
2023-03-15T11:16:04.464Z,97211.16
2023-03-15T11:21:12.161Z,97212.38
2023-03-15T11:26:25.775Z,97217.28
2023-03-15T11:31:35.631Z,97221.38
2023-03-15T11:36:41.489Z,97222.13
2023-03-15T11:41:55.125Z,97220.94
2023-03-15T11:47:24.565Z,97222.13
2023-03-15T11:52:29.110Z,97212.66
2023-03-15T11:57:37.220Z,97193.44
2023-03-15T12:02:52.638Z,97184.19
2023-03-15T12:08:15.444Z,97178.25
2023-03-15T12:13:22.248Z,97176.91
2023-03-15T12:18:33.555Z,97180.06
2023-03-15T12:23:40.340Z,97177.09
2023-03-15T12:28:51.273Z,97161.19
2023-03-15T12:33:58.235Z,97161.56
2023-03-15T12:39:15.121Z,97161.91
2023-03-15T12:44:33.335Z,97151.53
2023-03-15T12:49:44.231Z,97157.47
2023-03-15T12:54:53.851Z,97164.88
2023-03-15T13:00:15.040Z,97160.19
2023-03-15T13:05:30.415Z,97175.44
2023-03-15T13:10:50.493Z,97161.16
2023-03-15T13:16:06.856Z,97168.25
2023-03-15T13:21:16.729Z,97164.38
2023-03-15T13:26:27.105Z,97161.09
2023-03-15T13:31:31.678Z,97169.69
2023-03-15T13:36:46.051Z,97163.06
2023-03-15T13:41:47.986Z,97176.66
2023-03-15T13:46:51.567Z,97180.38
2023-03-15T13:51:53.740Z,97202.75
2023-03-15T13:57:16.556Z,97192.78
2023-03-15T14:02:25.088Z,97187.41
2023-03-15T14:07:36.998Z,97202.03
2023-03-15T14:12:39.003Z,97209.75
2023-03-15T14:17:53.013Z,97227.56
2023-03-15T14:22:58.925Z,97240.09
2023-03-15T14:28:02.496Z,97227.84
2023-03-15T14:33:08.688Z,97233.69
2023-03-15T14:38:22.854Z,97230.56
2023-03-15T14:43:24.626Z,97235.09
2023-03-15T14:48:32.147Z,97222.34
2023-03-15T14:53:36.089Z,97232.31
2023-03-15T14:58:37.745Z,97227.66
2023-03-15T15:03:43.186Z,97229.00
2023-03-15T15:08:46.976Z,97232.38
2023-03-15T15:13:48.756Z,97230.03
2023-03-15T15:18:50.585Z,97241.03
2023-03-15T15:23:58.343Z,97243.56
2023-03-15T15:29:01.113Z,97245.47
2023-03-15T15:34:02.957Z,97258.97
2023-03-15T15:39:15.979Z,97259.53
2023-03-15T15:44:19.079Z,97264.81
2023-03-15T15:49:21.108Z,97265.53
2023-03-15T15:54:26.750Z,97262.34
2023-03-15T15:59:28.565Z,97258.00
2023-03-15T16:04:30.861Z,97265.69
2023-03-15T16:09:37.547Z,97263.94
2023-03-15T16:14:39.577Z,97269.22
2023-03-15T16:19:41.345Z,97283.19
2023-03-15T16:24:46.796Z,97271.81
2023-03-15T16:29:49.904Z,97289.31
2023-03-15T16:34:53.217Z,97288.13
2023-03-15T16:39:57.738Z,97285.28
2023-03-15T16:44:59.598Z,97298.38
2023-03-15T16:50:01.318Z,97311.28
2023-03-15T16:55:03.838Z,97320.91
2023-03-15T17:00:11.879Z,97324.88
2023-03-15T17:05:19.859Z,97328.06
2023-03-15T17:10:27.550Z,97345.91
2023-03-15T17:15:30.625Z,97359.53
2023-03-15T17:20:32.511Z,97361.56
2023-03-15T17:25:34.524Z,97371.56
2023-03-15T17:30:37.610Z,97376.19
2023-03-15T17:35:47.864Z,97387.13
2023-03-15T17:40:50.521Z,97397.16
2023-03-15T17:45:52.314Z,97401.41
2023-03-15T17:50:54.050Z,97396.69
2023-03-15T17:55:55.785Z,97404.13
2023-03-15T18:00:57.629Z,97393.00
2023-03-15T18:06:01.359Z,97402.53
2023-03-15T18:11:03.302Z,97417.63
2023-03-15T18:16:05.369Z,97425.38
2023-03-15T18:21:13.320Z,97420.50
2023-03-15T18:26:15.857Z,97430.13
2023-03-15T18:31:25.446Z,97430.75
2023-03-15T18:36:27.101Z,97436.22
2023-03-15T18:41:28.772Z,97449.00
2023-03-15T18:46:31.708Z,97454.09
2023-03-15T18:51:34.094Z,97458.75
2023-03-15T18:56:35.808Z,97453.25
2023-03-15T19:01:38.253Z,97446.25
2023-03-15T19:06:40.210Z,97459.91
2023-03-15T19:11:43.412Z,97462.31
2023-03-15T19:16:45.140Z,97471.31
2023-03-15T19:21:46.962Z,97471.94
2023-03-15T19:26:48.647Z,97474.78
2023-03-15T19:31:50.535Z,97475.41
2023-03-15T19:36:52.967Z,97475.28
2023-03-15T19:41:54.654Z,97472.69
2023-03-15T19:46:56.917Z,97479.75
2023-03-15T19:51:58.645Z,97476.06
2023-03-15T19:57:00.902Z,97485.66
2023-03-15T20:02:02.707Z,97492.56
2023-03-15T20:07:04.526Z,97492.47
2023-03-15T20:12:08.024Z,97491.53
2023-03-15T20:17:09.698Z,97501.97
2023-03-15T20:22:11.399Z,97506.81
2023-03-15T20:27:13.639Z,97520.34
2023-03-15T20:32:15.840Z,97532.50
2023-03-15T20:37:18.401Z,97542.28
2023-03-15T20:42:24.354Z,97542.28
2023-03-15T20:47:26.393Z,97546.00
2023-03-15T20:52:28.221Z,97556.53
2023-03-15T20:57:29.926Z,97556.72
2023-03-15T21:02:31.738Z,97553.59
2023-03-15T21:07:34.176Z,97551.94
2023-03-15T21:12:36.100Z,97560.50
2023-03-15T21:17:37.850Z,97560.72
2023-03-15T21:22:39.557Z,97557.19
2023-03-15T21:27:41.285Z,97562.81
2023-03-15T21:32:43.557Z,97574.06
2023-03-15T21:37:45.627Z,97575.31
2023-03-15T21:42:47.796Z,97572.41
2023-03-15T21:47:52.939Z,97561.19
2023-03-15T21:52:56.519Z,97575.28
2023-03-15T21:57:58.473Z,97576.09
2023-03-15T22:03:01.393Z,97571.50
2023-03-15T22:08:03.180Z,97561.13
2023-03-15T22:13:04.865Z,97567.34
2023-03-15T22:18:06.652Z,97571.47
2023-03-15T22:23:08.701Z,97572.50
2023-03-15T22:28:11.226Z,97573.97
2023-03-15T22:33:12.883Z,97588.94
2023-03-15T22:38:15.668Z,97583.13
2023-03-15T22:43:17.751Z,97591.41
2023-03-15T22:48:19.437Z,97592.69
2023-03-15T22:53:21.154Z,97594.50
2023-03-15T22:58:23.209Z,97599.41
2023-03-15T23:03:26.266Z,97598.81
2023-03-15T23:08:28.210Z,97595.31
2023-03-15T23:13:29.915Z,97598.00
2023-03-15T23:18:34.281Z,97598.22
2023-03-15T23:23:38.541Z,97603.81
2023-03-15T23:28:40.265Z,97602.72
2023-03-15T23:33:42.741Z,97611.00
2023-03-15T23:38:44.507Z,97604.31
2023-03-15T23:43:46.209Z,97605.28
2023-03-15T23:48:47.882Z,97610.06
2023-03-15T23:53:49.625Z,97610.72
2023-03-15T23:58:51.796Z,97609.06
